createdAt,value
2018-06-20T00:02:44.986Z,19.49
2018-06-20T00:07:39.682Z,19.57
2018-06-20T00:12:34.255Z,19.31
2018-06-20T00:17:28.814Z,19.08
2018-06-20T00:22:23.337Z,19.14
2018-06-20T00:27:17.879Z,19.25
2018-06-20T00:32:12.394Z,19.19
2018-06-20T00:37:06.940Z,19.19
2018-06-20T00:42:01.511Z,18.94
2018-06-20T00:46:56.245Z,19.00
2018-06-20T00:51:50.796Z,19.11
2018-06-20T00:56:45.340Z,18.94
2018-06-20T01:01:39.880Z,18.82
2018-06-20T01:06:34.395Z,18.72
2018-06-20T01:11:28.998Z,18.68
2018-06-20T01:21:25.370Z,18.63
2018-06-20T01:26:19.903Z,18.41
2018-06-20T01:31:14.543Z,18.37
2018-06-20T01:36:08.849Z,18.56
2018-06-20T01:41:03.465Z,18.52
2018-06-20T01:45:57.989Z,18.15
2018-06-20T01:50:56.999Z,18.37
2018-06-20T01:55:51.814Z,18.40
2018-06-20T02:00:46.453Z,18.33
2018-06-20T02:05:40.978Z,18.26
2018-06-20T02:10:35.510Z,18.22
2018-06-20T02:15:30.089Z,17.93
2018-06-20T02:20:25.321Z,18.03
2018-06-20T02:25:19.877Z,18.16
2018-06-20T02:30:17.292Z,18.15
2018-06-20T02:35:11.867Z,18.10
2018-06-20T02:40:06.591Z,18.16
2018-06-20T02:45:01.131Z,18.06
2018-06-20T02:49:55.770Z,17.99
2018-06-20T02:54:50.367Z,17.84
2018-06-20T02:59:44.971Z,17.93
2018-06-20T03:04:39.655Z,17.82
2018-06-20T03:09:34.276Z,17.68
2018-06-20T03:14:29.018Z,17.68
2018-06-20T03:19:24.816Z,17.69
2018-06-20T03:24:19.335Z,17.93
2018-06-20T03:29:13.886Z,17.86
2018-06-20T03:34:08.412Z,17.86
2018-06-20T03:39:03.089Z,17.62
2018-06-20T03:43:57.685Z,17.46
2018-06-20T03:48:52.183Z,17.48
2018-06-20T03:53:46.710Z,17.44
2018-06-20T03:58:42.818Z,17.56
2018-06-20T04:03:37.382Z,17.61
2018-06-20T04:08:31.975Z,17.67
2018-06-20T04:13:26.577Z,17.76
2018-06-20T04:18:24.172Z,17.80
2018-06-20T04:23:18.710Z,17.94
2018-06-20T04:28:13.313Z,18.20
2018-06-20T04:33:07.941Z,18.51
2018-06-20T04:38:02.522Z,18.87
2018-06-20T04:42:58.966Z,19.47
2018-06-20T04:47:55.368Z,20.08
2018-06-20T04:52:49.889Z,20.60
2018-06-20T04:57:44.404Z,21.14
2018-06-20T05:02:39.149Z,21.67
2018-06-20T05:07:33.798Z,22.08
2018-06-20T05:12:28.363Z,22.48
2018-06-20T05:17:23.048Z,22.84
2018-06-20T05:22:17.614Z,23.26
2018-06-20T05:27:12.114Z,23.52
2018-06-20T05:32:06.725Z,23.79
2018-06-20T05:37:01.256Z,23.91
2018-06-20T05:41:55.903Z,23.96
2018-06-20T05:46:50.595Z,23.90
2018-06-20T05:51:44.882Z,23.62
2018-06-20T05:56:39.496Z,23.41
2018-06-20T06:01:34.167Z,23.32
2018-06-20T06:06:29.874Z,23.11
2018-06-20T06:11:24.428Z,22.88
2018-06-20T06:16:19.011Z,22.85
2018-06-20T06:21:13.635Z,22.73
2018-06-20T06:26:08.243Z,22.57
2018-06-20T06:31:02.766Z,22.66
2018-06-20T06:35:57.340Z,22.71
2018-06-20T06:40:52.528Z,22.84
2018-06-20T06:45:47.119Z,23.00
2018-06-20T06:50:41.708Z,23.15
2018-06-20T06:55:36.258Z,23.62
2018-06-20T07:00:30.926Z,23.87
2018-06-20T07:05:25.537Z,24.22
2018-06-20T07:10:20.146Z,24.35
2018-06-20T07:15:14.795Z,24.90
2018-06-20T07:20:09.457Z,25.58
2018-06-20T07:25:04.326Z,25.62
2018-06-20T07:29:58.967Z,25.03
2018-06-20T07:34:53.766Z,25.43
2018-06-20T07:39:48.291Z,25.72
2018-06-20T07:44:42.890Z,25.90
2018-06-20T07:49:37.443Z,26.25
2018-06-20T07:54:31.991Z,26.41
2018-06-20T07:59:30.563Z,26.62
2018-06-20T08:04:30.233Z,26.85
2018-06-20T08:09:29.769Z,26.98
2018-06-20T08:14:29.393Z,27.14
2018-06-20T08:19:28.935Z,27.77
2018-06-20T08:24:23.480Z,27.43
2018-06-20T08:29:18.021Z,27.45
2018-06-20T08:34:12.778Z,27.84
2018-06-20T08:39:08.810Z,27.84
2018-06-20T08:44:03.598Z,28.49
2018-06-20T08:48:58.163Z,28.32
2018-06-20T08:53:52.745Z,28.62
2018-06-20T08:58:47.398Z,28.55
2018-06-20T09:03:42.738Z,28.88
2018-06-20T09:08:42.417Z,28.78
2018-06-20T09:13:45.794Z,28.72
2018-06-20T09:18:45.309Z,29.02
2018-06-20T09:23:39.933Z,28.90
2018-06-20T09:28:34.602Z,28.71
2018-06-20T09:33:29.208Z,28.64
2018-06-20T09:38:23.771Z,28.92
2018-06-20T09:43:18.372Z,29.03
2018-06-20T09:48:12.931Z,29.28
2018-06-20T09:53:07.821Z,29.41
2018-06-20T09:58:02.433Z,29.24
2018-06-20T10:03:02.043Z,29.77
2018-06-20T10:08:04.639Z,30.11
2018-06-20T10:13:04.319Z,29.80
2018-06-20T10:17:58.839Z,30.06
2018-06-20T10:22:53.509Z,30.16
2018-06-20T10:27:48.031Z,29.85
2018-06-20T10:32:42.599Z,29.98
2018-06-20T10:37:37.256Z,29.97
2018-06-20T10:42:31.894Z,30.40
2018-06-20T10:47:31.641Z,30.83
2018-06-20T10:52:26.295Z,30.83
2018-06-20T10:57:26.014Z,30.58
2018-06-20T11:02:25.739Z,30.86
2018-06-20T11:07:25.346Z,31.34
2018-06-20T11:12:24.957Z,31.54
2018-06-20T11:17:19.559Z,31.24
2018-06-20T11:22:14.287Z,30.69
2018-06-20T11:27:08.929Z,30.74
2018-06-20T11:32:03.514Z,31.16
2018-06-20T11:36:58.044Z,31.20
2018-06-20T11:41:52.598Z,31.10
2018-06-20T11:46:52.297Z,30.99
2018-06-20T11:51:46.896Z,30.95
2018-06-20T11:56:41.527Z,31.32
2018-06-20T12:01:41.258Z,31.63
2018-06-20T12:06:41.039Z,31.54
2018-06-20T12:11:40.958Z,31.21
2018-06-20T12:16:36.664Z,31.56
2018-06-20T12:21:36.344Z,31.41
2018-06-20T12:26:35.995Z,31.45
2018-06-20T12:31:35.793Z,31.08
2018-06-20T12:36:35.640Z,31.15
2018-06-20T12:41:36.964Z,31.01
2018-06-20T12:46:51.566Z,30.99
2018-06-20T12:51:46.095Z,31.04
2018-06-20T12:56:40.630Z,30.77
2018-06-20T13:01:35.210Z,30.83
2018-06-20T13:06:29.839Z,30.68
2018-06-20T13:11:24.397Z,30.62
2018-06-20T13:16:18.944Z,30.73
2018-06-20T13:21:13.506Z,30.73
2018-06-20T13:26:08.067Z,30.85
2018-06-20T13:31:07.695Z,30.71
2018-06-20T13:36:07.324Z,30.68
2018-06-20T13:41:07.022Z,30.49
2018-06-20T13:46:06.839Z,30.42
2018-06-20T13:51:01.443Z,30.14
2018-06-20T13:55:55.975Z,30.32
2018-06-20T14:00:50.539Z,30.52
2018-06-20T14:05:45.099Z,30.20
2018-06-20T14:10:39.829Z,30.22
2018-06-20T14:15:34.468Z,30.17
2018-06-20T14:20:34.232Z,30.18
2018-06-20T14:25:28.853Z,30.13
2018-06-20T14:30:28.492Z,30.05
2018-06-20T14:35:28.052Z,30.09
2018-06-20T14:40:27.543Z,30.10
2018-06-20T14:45:27.283Z,30.03
2018-06-20T14:50:21.880Z,30.15
2018-06-20T14:55:16.462Z,30.10
2018-06-20T15:00:11.044Z,30.12
2018-06-20T15:05:05.947Z,29.86
2018-06-20T15:10:00.482Z,29.99
2018-06-20T15:14:55.042Z,30.15
2018-06-20T15:19:49.629Z,30.07
2018-06-20T15:24:44.178Z,30.04
2018-06-20T15:29:43.873Z,30.17
2018-06-20T15:34:43.465Z,30.14
2018-06-20T15:39:38.083Z,30.08
2018-06-20T15:44:32.655Z,30.02
2018-06-20T15:49:27.323Z,30.04
2018-06-20T15:54:21.903Z,29.94
2018-06-20T15:59:16.461Z,30.03
2018-06-20T16:04:11.039Z,30.13
2018-06-20T16:09:12.974Z,30.10
2018-06-20T16:14:07.547Z,29.93
2018-06-20T16:19:07.366Z,29.95
2018-06-20T16:24:07.216Z,29.94
2018-06-20T16:29:07.102Z,29.97
2018-06-20T16:34:02.105Z,29.91
2018-06-20T16:38:57.464Z,29.89
2018-06-20T16:43:52.171Z,29.75
2018-06-20T16:48:46.443Z,29.83
2018-06-20T16:53:41.002Z,29.75
2018-06-20T16:58:35.571Z,29.71
2018-06-20T17:03:30.166Z,29.60
2018-06-20T17:08:24.716Z,29.48
2018-06-20T17:13:24.400Z,29.48
2018-06-20T17:18:24.227Z,29.57
2018-06-20T17:23:23.860Z,29.40
2018-06-20T17:28:18.583Z,29.28
2018-06-20T17:33:13.152Z,29.21
2018-06-20T17:38:07.789Z,29.17
2018-06-20T17:43:02.365Z,29.07
2018-06-20T17:47:56.951Z,28.90
2018-06-20T17:52:51.547Z,28.81
2018-06-20T17:57:46.123Z,28.56
2018-06-20T18:02:40.699Z,28.46
2018-06-20T18:07:40.338Z,28.35
2018-06-20T18:12:40.124Z,28.13
2018-06-20T18:17:34.708Z,27.82
2018-06-20T18:22:30.324Z,27.44
2018-06-20T18:27:24.981Z,27.33
2018-06-20T18:32:19.575Z,27.34
2018-06-20T18:37:14.124Z,27.17
2018-06-20T18:42:08.738Z,27.17
2018-06-20T18:47:03.343Z,27.11
2018-06-20T18:51:57.927Z,27.00
2018-06-20T18:56:52.611Z,26.82
2018-06-20T19:01:52.452Z,26.66
2018-06-20T19:06:52.315Z,26.43
2018-06-20T19:11:47.291Z,26.50
2018-06-20T19:16:41.928Z,26.25
2018-06-20T19:21:37.487Z,26.17
2018-06-20T19:26:32.327Z,26.18
2018-06-20T19:31:26.534Z,25.93
2018-06-20T19:36:21.090Z,25.80
2018-06-20T19:41:15.691Z,25.67
2018-06-20T19:46:10.299Z,25.51
2018-06-20T19:51:05.202Z,25.42
2018-06-20T19:55:59.804Z,25.34
2018-06-20T20:00:54.414Z,25.31
2018-06-20T20:05:49.026Z,25.08
2018-06-20T20:10:43.648Z,25.00
2018-06-20T20:15:38.249Z,24.94
2018-06-20T20:20:32.847Z,24.77
2018-06-20T20:25:27.454Z,24.54
2018-06-20T20:30:22.092Z,24.49
2018-06-20T20:35:16.719Z,24.38
2018-06-20T20:40:11.306Z,24.28
2018-06-20T20:45:06.060Z,24.20
2018-06-20T20:50:00.718Z,24.19
2018-06-20T20:54:55.292Z,24.19
2018-06-20T20:59:49.819Z,24.09
2018-06-20T21:04:44.451Z,23.91
2018-06-20T21:09:39.077Z,24.01
2018-06-20T21:14:33.699Z,23.88
2018-06-20T21:19:28.247Z,23.73
2018-06-20T21:24:22.474Z,23.59
2018-06-20T21:29:17.046Z,23.65
2018-06-20T21:34:11.655Z,23.68
2018-06-20T21:39:09.855Z,23.62
2018-06-20T21:44:04.442Z,23.52
2018-06-20T21:48:58.998Z,23.40
2018-06-20T21:53:53.619Z,23.32
2018-06-20T21:58:48.189Z,23.15
2018-06-20T22:03:42.485Z,23.12
2018-06-20T22:08:36.719Z,23.06
2018-06-20T22:13:31.293Z,23.05
2018-06-20T22:18:25.887Z,22.91
2018-06-20T22:23:20.387Z,22.78
2018-06-20T22:28:14.963Z,22.80
2018-06-20T22:33:09.479Z,22.82
2018-06-20T22:38:04.059Z,22.80
2018-06-20T22:42:58.629Z,22.49
2018-06-20T22:47:53.339Z,22.33
2018-06-20T22:52:47.577Z,22.48
2018-06-20T22:57:42.136Z,22.37
2018-06-20T23:02:36.731Z,22.39
2018-06-20T23:07:31.376Z,22.24
2018-06-20T23:12:25.910Z,22.19
2018-06-20T23:17:20.479Z,22.08
2018-06-20T23:22:15.029Z,21.98
2018-06-20T23:27:09.643Z,22.05
2018-06-20T23:32:04.203Z,21.95
2018-06-20T23:36:58.760Z,21.89
2018-06-20T23:41:53.311Z,21.70
2018-06-20T23:46:47.899Z,21.51
2018-06-20T23:51:42.511Z,21.74
2018-06-20T23:56:37.050Z,21.86
